Decoded Metar for KEDW (EDWARDS AFB in CA, USA) (IATA:EDW) | Meteo·Mobile Aviation Weather
aviador You're here:

KEDW Decoded Metar

EDWARDS AFB in CA, USA
Report Time2019-01-19 02:58:00
UTC Time2019-01-19 03:10:05
Flight Rules vfr VFR
Wind290° at 05 kt
W.Decomp.*RWY 24: 4.1 kt HW 2.9 kt RCW
RWY 22: 2.9 kt HW 4.1 kt RCW
W.Rank290° ranks 11
Current wind is below 290° avg. (12.9)
Visibility9999 m
Phenomena:N/A
Clouds:Broken 350 Hf
Expected CloudBase > 1,200 ft AGL from Temp-Dew spread
Ceiling35,000 ft
Temp11°C (ISA +1)
Dew Point08°C (82% RH)
AAT8.7°C
QNH1026 hPa
Density Alt2,087 ft
Elevation2,303 ft
Report Wrong Elevation
Raw Report
KEDW 190258Z 29005KT 50SM BKN350 11/08 A3029 RMK AO2A SLP257
T01100080 52018=

Extra information for KEDW:More info

Metar Taf Metar & Taf Last 4 Metars F.Rules Stats Wind Profile Meteogram Temp Stats Airport Information Weather charts Add Link Nearby VenuesMetar ALERT Operation Metar Decoded Social comments

AIRNAV info for KEDW